KEYO2: Keystone Lake

Data processed at Thu Jan 23 2020 21:55


All information presented herein is the property of the government of the United States of America and may be revised or deleted at any time without prior notice.
Dissemination of this information without the expressed written consent of the Public Affairs Office, Tulsa District U.S. Army Corps of Engineers is strictly prohibited.
These data are gathered electronically and, as presented, have not undergone any form of quality control. These data are not guaranteed to be valid or correct.
Go to home page.
Go to station list.
Go to home page.

Upstream stations:

Downstream station:
Previous Day
Next Day
Current Day
    
SHEF ID:       KEYO2     Keystone Lake
STATION TYPE:  Reservoir
Flood Pool:  Bottom =   723.00, Top =   754.00

               PRECIP ELEVATION   STORAGE   TW-ELEV    INFLOW   RELEASE  AIR-TEMP  WIND-DIRWIND-SPEED REL-HUMID SOLAR-RAD   VOLTAGE  BAT-LOAD
                   in        ft     ac-ft        ft       cfs       cfs         F       deg       mph         %      W/m2      volt      volt
              Ccp-Rev   Ccp-Rev   Ccp-Rev   Ccp-Rev  Rev-Regi  Rev-Regi   Ccp-Rev   Ccp-Rev   Ccp-Rev   Ccp-Rev   Ccp-Rev   Ccp-Rev   Ccp-Rev
(US/Central)
01/23 00:00      0.00    726.57    503192    642.46      4286      9820     37.81    109.70      5.40    100.22      0.00     13.53     13.21
01/23 01:00      0.00    726.55    502734    642.46      4301      9815     37.78    128.70      3.20    100.22      0.00     13.54     13.21
01/23 02:00      0.00    726.53    502276    642.46      4850      9910     37.85    104.20      2.10    100.22      0.00     13.54     13.21
01/23 03:00      0.00    726.51    501819    642.46      4845      9805     37.74    145.80      2.40    100.22      0.00     13.53     13.21
01/23 04:00      0.00    726.50    501590    642.46      5394      9802     37.80    107.50      2.30    100.22      0.00     13.54     13.21
01/23 05:00      0.00    726.48    501132    642.45      5370      9797     37.90    237.60      2.30    100.22      0.00     13.53     13.21
01/23 06:00      0.00    726.47    500904    642.45      6474      9695     37.92    198.00      1.90    100.21      0.00     13.53     13.21
01/23 07:00      0.00    726.45    500446    642.42      5363      9890     38.14    265.00      3.70    100.21      0.00     13.53     13.21
01/23 08:00      0.00    726.45    500446    642.46      6467      9790     38.84    272.90      6.00    100.21      0.00     13.54     13.21
01/23 09:00      0.00    726.42    499760    642.46      6998      9782     39.54    280.40      7.30    100.22      5.00     13.52     13.21
01/23 10:00      0.00    726.42    499760    642.40      7502      9682     41.07    283.00      8.20     99.67     72.30     14.55     13.21
01/23 11:00      0.01    726.42    499760    642.41      6332      9782     43.02    292.20      8.90     93.82    212.10     14.53     13.29
01/23 12:00      0.00    726.41    499531    642.41      7897      9780     44.33    293.90     12.30     85.92    322.80     14.13     13.37
01/23 13:00      0.00    726.39    499073    642.43      7275      9774     45.75    292.80     12.40     79.09    330.80     14.11     13.37
01/23 14:00      0.00    726.39    499073    642.42      6145      9774     47.25    295.00     13.90     72.07    108.70     14.10     13.37
01/23 15:00      0.00    726.38    498844    642.42      7197      9772     48.96    285.30     15.90     65.76    106.80     14.11     13.92
01/23 16:00      0.00    726.36    498387    642.42     10360      9767     50.09    283.60     16.90     60.87    161.90     14.08     13.92
01/23 17:00      0.00    726.37    498616    642.42     10361      9769     50.59    283.80     15.50     58.34     84.40     14.08     13.84
01/23 18:00      0.00    726.41    499531    642.42      9027      9780     49.39    292.30     17.20     62.04      1.90     13.54     13.29
01/23 19:00      0.00    726.41    499531    642.41     10081      9780     43.54    298.50     25.60     84.11      0.00     13.54     13.29
01/23 20:00      0.00    726.36    498387    642.41      7693      9767     41.40    285.10     16.60     90.21      0.00     13.53     13.29
01/23 21:00      0.00    726.36    498387    642.42      7443      9767     41.11    287.00     15.30     88.75      0.00     13.53     13.21
01/23 22:00      ----      ----      ----      ----      ----      ----      ----      ----      ----      ----      ----      ----      ----
01/23 23:00      ----      ----      ----      ----      ----      ----      ----      ----      ----      ----      ----      ----      ----